Canon City, CO

2:46 PM MDT on August 23, 2014 (GMT -0600)
Butts Army Air Field | Change Station
CLOSE
Current Station
Airport
Location: Fort Carson,
Elevation: 5869 ft
Nearby Weather Stations

Elev 5869 ft 38.68 °N, 104.76 °W | Updated 48 minutes ago

Mostly Cloudy
Mostly Cloudy
81 °F
Feels Like 81 °F
N
13
Wind Variable Wind from WSW
Gusts 18 mph

Today
High -- | Low -- °F
--% Chance of Precip.
Yesterday
High -- | Low -- °F
Precip. -- in
6:22 AM 7:44 PM
Waning Crescent, 3% visible
Pressure 29.78 in
Visibility 10.0 miles
Clouds Mostly Cloudy 11000 ft
Dew Point 43 °F
Humidity 26%
Rainfall 0.00 in
Snow Depth Not available.
UV 6 out of 12
Pollen 9.50 out of 12
Air Quality Not available.
Flu Activity Not available.
METAR KFCS 231958Z AUTO 24011G16KT 10SM BKN110 27/06 A2994 RMK AO2 SLP082

More Conditions Fewer Conditions

Pressure 29.78 in
Visibility 10.0 miles
Clouds Mostly Cloudy 11000 ft
Dew Point 43 °F
Humidity 26%
Rainfall 0.00 in
Snow Depth Not available.
UV 6 out of 12
Pollen 9.50 out of 12
Air Quality Not available.
Flu Activity Not available.
METAR KFCS 231958Z AUTO 24011G16KT 10SM BKN110 27/06 A2994 RMK AO2 SLP082

More Conditions Fewer Conditions

10-Day Weather Forecast

Almanac

Astronomy

Aug. 23, 2014 Rise Set
Actual Time 6:22 AM MDT 7:44 PM MDT
Civil Twilight 5:55 AM MDT 8:12 PM MDT
Nautical Twilight 5:22 AM MDT 8:45 PM MDT
Astronomical Twilight 4:47 AM MDT 9:19 PM MDT
Moon 4:42 AM MDT 6:30 PM MDT
Length of Visible Light 14h 16m
Length of Day
13h 21m
Tomorrow will be 2m 18s shorter.
Waning Crescent, 3% of the Moon is Illuminated
Today
Waning Crescent
Aug 25
New
Sep 2
First Quarter
Sep 8
Full
Sep 15
Last Quarter

Today's Extremes

State Highs State Lows

Community

WunderPhotos

Upload Photos

1,746,622 photos uploaded!

WunderBlogs® & News

Nearby

Snow Depth

Station Depth Elevation
South Colony 0 in 10800 ft
Rough And Tumble 1 in 10360 ft
Ute Creek 0 in 10650 ft
Park Cone 0 in 9600 ft
Michigan Creek 0 in 10600 ft

Earthquake Activity

City Distance Mag. Time & Date
No recent earthquake activity has been reported nearby.
Minimum magnitude displayed is 2.5.

Coastal Water Temperatures

Place Temperature
No Stations Reporting

Nearby Weather Stations